sensor_id;sensor_type;location;lat;lon;timestamp;P1;durP1;ratioP1;P2;durP2;ratioP2
50880;SDS011;36858;47.832;-3.800;2023-05-23T05:47:58;7.37;;;5.07;;
50880;SDS011;36858;47.832;-3.800;2023-05-23T05:50:25;6.47;;;5.17;;
50880;SDS011;36858;47.832;-3.800;2023-05-23T05:52:52;7.10;;;5.57;;
50880;SDS011;36858;47.832;-3.800;2023-05-23T05:55:19;10.27;;;5.90;;
50880;SDS011;36858;47.832;-3.800;2023-05-23T05:57:46;7.27;;;5.60;;
50880;SDS011;36858;47.832;-3.800;2023-05-23T06:00:13;8.13;;;5.30;;
50880;SDS011;36858;47.832;-3.800;2023-05-23T06:02:41;6.53;;;5.13;;
50880;SDS011;36858;47.832;-3.800;2023-05-23T06:05:17;9.80;;;5.47;;
50880;SDS011;36858;47.832;-3.800;2023-05-23T06:07:46;10.90;;;5.47;;
50880;SDS011;36858;47.832;-3.800;2023-05-23T06:10:14;6.93;;;4.70;;
50880;SDS011;36858;47.832;-3.800;2023-05-23T06:12:41;7.80;;;5.20;;
50880;SDS011;36858;47.832;-3.800;2023-05-23T06:15:08;7.57;;;5.50;;
50880;SDS011;36858;47.832;-3.800;2023-05-23T06:17:36;5.40;;;4.67;;
50880;SDS011;36858;47.832;-3.800;2023-05-23T06:20:03;8.70;;;5.10;;
50880;SDS011;36858;47.832;-3.800;2023-05-23T06:22:31;6.37;;;4.77;;
50880;SDS011;36858;47.832;-3.800;2023-05-23T06:24:58;6.73;;;5.13;;
50880;SDS011;36858;47.832;-3.800;2023-05-23T06:27:25;5.93;;;4.70;;
50880;SDS011;36858;47.832;-3.800;2023-05-23T06:29:52;6.57;;;5.13;;
50880;SDS011;36858;47.832;-3.800;2023-05-23T06:32:19;7.17;;;4.90;;
50880;SDS011;36858;47.832;-3.800;2023-05-23T06:34:46;4.57;;;4.13;;
50880;SDS011;36858;47.832;-3.800;2023-05-23T06:37:13;6.60;;;4.37;;
50880;SDS011;36858;47.832;-3.800;2023-05-23T06:39:40;6.63;;;5.00;;
50880;SDS011;36858;47.832;-3.800;2023-05-23T06:42:07;4.83;;;4.00;;
50880;SDS011;36858;47.832;-3.800;2023-05-23T06:44:34;6.07;;;3.43;;
50880;SDS011;36858;47.832;-3.800;2023-05-23T06:47:01;6.27;;;4.20;;
50880;SDS011;36858;47.832;-3.800;2023-05-23T06:49:27;9.37;;;4.07;;
50880;SDS011;36858;47.832;-3.800;2023-05-23T06:51:55;7.00;;;4.40;;
50880;SDS011;36858;47.832;-3.800;2023-05-23T06:54:21;5.70;;;3.80;;
50880;SDS011;36858;47.832;-3.800;2023-05-23T06:56:48;5.57;;;3.63;;
50880;SDS011;36858;47.832;-3.800;2023-05-23T06:59:15;4.80;;;3.77;;
50880;SDS011;36858;47.832;-3.800;2023-05-23T07:01:42;6.93;;;3.80;;
50880;SDS011;36858;47.832;-3.800;2023-05-23T07:04:09;7.93;;;4.10;;
50880;SDS011;36858;47.832;-3.800;2023-05-23T07:06:37;5.73;;;4.20;;
50880;SDS011;36858;47.832;-3.800;2023-05-23T07:09:05;4.97;;;3.43;;
50880;SDS011;36858;47.832;-3.800;2023-05-23T07:11:32;5.97;;;3.80;;
50880;SDS011;36858;47.832;-3.800;2023-05-23T07:13:59;6.17;;;3.90;;
50880;SDS011;36858;47.832;-3.800;2023-05-23T07:16:26;4.63;;;3.77;;
50880;SDS011;36858;47.832;-3.800;2023-05-23T07:18:53;6.67;;;3.87;;
50880;SDS011;36858;47.832;-3.800;2023-05-23T07:21:20;4.03;;;3.40;;
50880;SDS011;36858;47.832;-3.800;2023-05-23T07:23:47;3.93;;;3.23;;
50880;SDS011;36858;47.832;-3.800;2023-05-23T07:26:14;6.93;;;3.20;;
50880;SDS011;36858;47.832;-3.800;2023-05-23T07:28:41;6.33;;;3.60;;
50880;SDS011;36858;47.832;-3.800;2023-05-23T07:31:08;4.60;;;2.97;;
50880;SDS011;36858;47.832;-3.800;2023-05-23T07:33:35;4.57;;;2.97;;
50880;SDS011;36858;47.832;-3.800;2023-05-23T07:36:02;4.70;;;3.43;;
50880;SDS011;36858;47.832;-3.800;2023-05-23T07:38:29;3.57;;;3.10;;
50880;SDS011;36858;47.832;-3.800;2023-05-23T07:40:56;4.23;;;3.00;;
50880;SDS011;36858;47.832;-3.800;2023-05-23T07:43:36;6.17;;;3.33;;
50880;SDS011;36858;47.832;-3.800;2023-05-23T07:46:03;5.97;;;3.63;;
50880;SDS011;36858;47.832;-3.800;2023-05-23T07:48:31;5.57;;;3.70;;
50880;SDS011;36858;47.832;-3.800;2023-05-23T07:50:57;3.57;;;3.03;;
50880;SDS011;36858;47.832;-3.800;2023-05-23T07:53:24;6.13;;;3.30;;
50880;SDS011;36858;47.832;-3.800;2023-05-23T07:55:51;3.93;;;3.43;;
50880;SDS011;36858;47.832;-3.800;2023-05-23T07:58:18;3.37;;;3.07;;
50880;SDS011;36858;47.832;-3.800;2023-05-23T08:00:45;5.17;;;3.50;;
50880;SDS011;36858;47.832;-3.800;2023-05-23T08:03:12;3.50;;;2.73;;
50880;SDS011;36858;47.832;-3.800;2023-05-23T08:05:39;7.03;;;3.40;;
50880;SDS011;36858;47.832;-3.800;2023-05-23T08:08:06;4.40;;;2.67;;
50880;SDS011;36858;47.832;-3.800;2023-05-23T08:10:33;4.63;;;3.63;;
50880;SDS011;36858;47.832;-3.800;2023-05-23T08:13:00;5.80;;;2.83;;
50880;SDS011;36858;47.832;-3.800;2023-05-23T08:15:32;6.77;;;3.07;;
50880;SDS011;36858;47.832;-3.800;2023-05-23T08:17:59;5.03;;;3.40;;
50880;SDS011;36858;47.832;-3.800;2023-05-23T08:20:26;5.47;;;3.13;;
50880;SDS011;36858;47.832;-3.800;2023-05-23T08:22:58;4.57;;;2.90;;
50880;SDS011;36858;47.832;-3.800;2023-05-23T08:25:25;3.97;;;2.97;;
50880;SDS011;36858;47.832;-3.800;2023-05-23T08:27:59;5.87;;;3.03;;
50880;SDS011;36858;47.832;-3.800;2023-05-23T08:30:27;3.60;;;2.70;;
50880;SDS011;36858;47.832;-3.800;2023-05-23T08:32:55;4.17;;;2.73;;
50880;SDS011;36858;47.832;-3.800;2023-05-23T08:35:22;4.13;;;2.97;;
50880;SDS011;36858;47.832;-3.800;2023-05-23T08:37:49;4.13;;;2.63;;
50880;SDS011;36858;47.832;-3.800;2023-05-23T08:40:18;3.50;;;2.77;;
50880;SDS011;36858;47.832;-3.800;2023-05-23T08:42:50;3.57;;;3.00;;
50880;SDS011;36858;47.832;-3.800;2023-05-23T08:45:17;3.27;;;2.63;;
50880;SDS011;36858;47.832;-3.800;2023-05-23T08:47:44;4.90;;;2.57;;
50880;SDS011;36858;47.832;-3.800;2023-05-23T08:50:13;3.97;;;3.00;;
50880;SDS011;36858;47.832;-3.800;2023-05-23T08:52:53;3.73;;;2.90;;
50880;SDS011;36858;47.832;-3.800;2023-05-23T08:55:25;3.80;;;2.90;;
50880;SDS011;36858;47.832;-3.800;2023-05-23T08:57:54;3.27;;;2.73;;
50880;SDS011;36858;47.832;-3.800;2023-05-23T09:00:21;5.43;;;2.70;;
50880;SDS011;36858;47.832;-3.800;2023-05-23T09:02:50;4.57;;;2.57;;
50880;SDS011;36858;47.832;-3.800;2023-05-23T09:05:18;3.77;;;2.57;;
50880;SDS011;36858;47.832;-3.800;2023-05-23T09:07:45;4.00;;;2.90;;
50880;SDS011;36858;47.832;-3.800;2023-05-23T09:10:17;4.10;;;2.67;;
50880;SDS011;36858;47.832;-3.800;2023-05-23T09:12:48;3.80;;;2.67;;
50880;SDS011;36858;47.832;-3.800;2023-05-23T09:15:15;4.37;;;2.67;;
50880;SDS011;36858;47.832;-3.800;2023-05-23T09:17:43;2.63;;;2.37;;
50880;SDS011;36858;47.832;-3.800;2023-05-23T09:20:14;7.53;;;2.90;;
50880;SDS011;36858;47.832;-3.800;2023-05-23T09:22:46;2.47;;;2.27;;
50880;SDS011;36858;47.832;-3.800;2023-05-23T09:25:14;3.20;;;2.50;;
50880;SDS011;36858;47.832;-3.800;2023-05-23T09:27:41;3.17;;;2.60;;
50880;SDS011;36858;47.832;-3.800;2023-05-23T09:30:13;4.70;;;2.37;;
50880;SDS011;36858;47.832;-3.800;2023-05-23T09:32:40;2.53;;;2.33;;
50880;SDS011;36858;47.832;-3.800;2023-05-23T09:35:08;5.43;;;2.80;;
50880;SDS011;36858;47.832;-3.800;2023-05-23T09:37:40;5.40;;;2.90;;
50880;SDS011;36858;47.832;-3.800;2023-05-23T09:40:12;5.03;;;2.63;;
50880;SDS011;36858;47.832;-3.800;2023-05-23T09:42:45;4.73;;;2.90;;
50880;SDS011;36858;47.832;-3.800;2023-05-23T09:45:14;3.13;;;2.40;;
50880;SDS011;36858;47.832;-3.800;2023-05-23T09:47:51;5.03;;;2.30;;
50880;SDS011;36858;47.832;-3.800;2023-05-23T09:50:19;3.93;;;2.47;;
50880;SDS011;36858;47.832;-3.800;2023-05-23T09:52:46;6.37;;;1.97;;
50880;SDS011;36858;47.832;-3.800;2023-05-23T09:55:13;5.20;;;2.40;;
50880;SDS011;36858;47.832;-3.800;2023-05-23T09:57:41;4.30;;;2.27;;
50880;SDS011;36858;47.832;-3.800;2023-05-23T10:00:09;5.80;;;2.50;;
50880;SDS011;36858;47.832;-3.800;2023-05-23T10:05:49;2.90;;;2.07;;
50880;SDS011;36858;47.832;-3.800;2023-05-23T10:08:32;2.97;;;2.30;;
50880;SDS011;36858;47.832;-3.800;2023-05-23T10:13:39;2.87;;;2.37;;
50880;SDS011;36858;47.832;-3.800;2023-05-23T10:16:18;6.00;;;2.73;;
50880;SDS011;36858;47.832;-3.800;2023-05-23T10:18:57;4.57;;;2.20;;
50880;SDS011;36858;47.832;-3.800;2023-05-23T10:21:28;4.47;;;2.17;;
50880;SDS011;36858;47.832;-3.800;2023-05-23T10:24:02;2.63;;;2.33;;
50880;SDS011;36858;47.832;-3.800;2023-05-23T10:26:29;2.93;;;2.27;;
50880;SDS011;36858;47.832;-3.800;2023-05-23T10:28:57;3.10;;;2.30;;
50880;SDS011;36858;47.832;-3.800;2023-05-23T10:31:25;3.33;;;2.30;;
50880;SDS011;36858;47.832;-3.800;2023-05-23T10:33:55;2.83;;;1.97;;
50880;SDS011;36858;47.832;-3.800;2023-05-23T10:36:36;11.07;;;4.57;;
50880;SDS011;36858;47.832;-3.800;2023-05-23T10:39:13;5.53;;;3.13;;
50880;SDS011;36858;47.832;-3.800;2023-05-23T10:41:48;9.00;;;3.10;;
50880;SDS011;36858;47.832;-3.800;2023-05-23T10:44:24;4.17;;;2.20;;
50880;SDS011;36858;47.832;-3.800;2023-05-23T10:46:53;3.07;;;2.50;;
50880;SDS011;36858;47.832;-3.800;2023-05-23T10:49:36;6.53;;;2.80;;
50880;SDS011;36858;47.832;-3.800;2023-05-23T10:52:07;2.80;;;2.10;;
50880;SDS011;36858;47.832;-3.800;2023-05-23T10:57:14;3.10;;;2.53;;
50880;SDS011;36858;47.832;-3.800;2023-05-23T10:59:43;5.10;;;2.77;;
50880;SDS011;36858;47.832;-3.800;2023-05-23T11:02:11;2.80;;;2.37;;
50880;SDS011;36858;47.832;-3.800;2023-05-23T11:04:41;3.10;;;2.63;;
50880;SDS011;36858;47.832;-3.800;2023-05-23T11:07:27;4.03;;;2.57;;
50880;SDS011;36858;47.832;-3.800;2023-05-23T11:10:11;3.90;;;2.63;;
50880;SDS011;36858;47.832;-3.800;2023-05-23T11:12:40;3.57;;;2.63;;
50880;SDS011;36858;47.832;-3.800;2023-05-23T11:17:53;3.20;;;2.50;;
50880;SDS011;36858;47.832;-3.800;2023-05-23T11:20:23;3.27;;;2.70;;
50880;SDS011;36858;47.832;-3.800;2023-05-23T11:22:53;3.50;;;2.90;;
50880;SDS011;36858;47.832;-3.800;2023-05-23T11:25:21;3.13;;;2.77;;
50880;SDS011;36858;47.832;-3.800;2023-05-23T11:28:05;3.70;;;2.60;;
50880;SDS011;36858;47.832;-3.800;2023-05-23T11:30:33;2.93;;;2.40;;
50880;SDS011;36858;47.832;-3.800;2023-05-23T11:33:20;3.70;;;3.07;;
50880;SDS011;36858;47.832;-3.800;2023-05-23T11:35:47;4.90;;;2.80;;
50880;SDS011;36858;47.832;-3.800;2023-05-23T11:38:16;4.53;;;2.47;;
50880;SDS011;36858;47.832;-3.800;2023-05-23T11:40:44;3.70;;;2.57;;
50880;SDS011;36858;47.832;-3.800;2023-05-23T11:43:14;3.10;;;2.80;;
50880;SDS011;36858;47.832;-3.800;2023-05-23T11:45:45;8.00;;;2.67;;
50880;SDS011;36858;47.832;-3.800;2023-05-23T11:48:15;5.13;;;2.83;;
50880;SDS011;36858;47.832;-3.800;2023-05-23T11:50:50;3.50;;;2.40;;
50880;SDS011;36858;47.832;-3.800;2023-05-23T11:53:20;3.23;;;2.50;;
50880;SDS011;36858;47.832;-3.800;2023-05-23T11:58:21;4.37;;;2.70;;
50880;SDS011;36858;47.832;-3.800;2023-05-23T12:00:49;6.10;;;2.77;;
50880;SDS011;36858;47.832;-3.800;2023-05-23T12:03:20;3.13;;;2.83;;
50880;SDS011;36858;47.832;-3.800;2023-05-23T12:05:47;6.20;;;2.97;;
50880;SDS011;36858;47.832;-3.800;2023-05-23T12:08:14;4.67;;;2.80;;
50880;SDS011;36858;47.832;-3.800;2023-05-23T12:10:48;4.47;;;2.90;;
50880;SDS011;36858;47.832;-3.800;2023-05-23T12:13:16;3.50;;;3.10;;
50880;SDS011;36858;47.832;-3.800;2023-05-23T12:15:44;5.00;;;2.40;;
50880;SDS011;36858;47.832;-3.800;2023-05-23T12:18:14;3.30;;;2.67;;
50880;SDS011;36858;47.832;-3.800;2023-05-23T12:20:41;3.97;;;2.63;;
50880;SDS011;36858;47.832;-3.800;2023-05-23T12:23:16;3.17;;;2.43;;
50880;SDS011;36858;47.832;-3.800;2023-05-23T12:25:44;3.20;;;2.57;;
50880;SDS011;36858;47.832;-3.800;2023-05-23T12:28:10;3.43;;;2.53;;
50880;SDS011;36858;47.832;-3.800;2023-05-23T12:30:42;2.70;;;2.40;;
50880;SDS011;36858;47.832;-3.800;2023-05-23T12:33:09;9.63;;;3.67;;
50880;SDS011;36858;47.832;-3.800;2023-05-23T12:35:41;4.33;;;2.10;;
50880;SDS011;36858;47.832;-3.800;2023-05-23T12:38:09;2.43;;;2.23;;
50880;SDS011;36858;47.832;-3.800;2023-05-23T12:40:36;2.80;;;2.50;;
50880;SDS011;36858;47.832;-3.800;2023-05-23T12:43:07;2.47;;;2.27;;
50880;SDS011;36858;47.832;-3.800;2023-05-23T12:45:35;5.40;;;2.53;;
50880;SDS011;36858;47.832;-3.800;2023-05-23T12:48:02;5.20;;;2.23;;
50880;SDS011;36858;47.832;-3.800;2023-05-23T12:50:30;3.50;;;2.40;;
50880;SDS011;36858;47.832;-3.800;2023-05-23T12:52:57;3.57;;;2.20;;
50880;SDS011;36858;47.832;-3.800;2023-05-23T12:55:24;5.60;;;2.50;;
50880;SDS011;36858;47.832;-3.800;2023-05-23T12:57:51;4.27;;;2.10;;
50880;SDS011;36858;47.832;-3.800;2023-05-23T13:00:18;2.40;;;2.00;;
50880;SDS011;36858;47.832;-3.800;2023-05-23T13:02:46;2.50;;;2.30;;
50880;SDS011;36858;47.832;-3.800;2023-05-23T13:05:14;2.83;;;1.97;;
50880;SDS011;36858;47.832;-3.800;2023-05-23T13:07:41;2.43;;;2.10;;
50880;SDS011;36858;47.832;-3.800;2023-05-23T13:10:09;3.93;;;2.30;;
50880;SDS011;36858;47.832;-3.800;2023-05-23T13:12:37;9.33;;;2.47;;
50880;SDS011;36858;47.832;-3.800;2023-05-23T13:15:04;7.70;;;2.33;;
50880;SDS011;36858;47.832;-3.800;2023-05-23T13:17:32;4.23;;;2.13;;
50880;SDS011;36858;47.832;-3.800;2023-05-23T13:19:59;4.33;;;1.90;;
50880;SDS011;36858;47.832;-3.800;2023-05-23T13:22:27;3.10;;;1.97;;
50880;SDS011;36858;47.832;-3.800;2023-05-23T13:24:54;3.83;;;1.60;;
50880;SDS011;36858;47.832;-3.800;2023-05-23T13:27:21;5.03;;;1.87;;
50880;SDS011;36858;47.832;-3.800;2023-05-23T13:29:48;4.10;;;2.13;;
50880;SDS011;36858;47.832;-3.800;2023-05-23T13:32:15;4.40;;;2.27;;
50880;SDS011;36858;47.832;-3.800;2023-05-23T13:34:42;5.17;;;2.03;;
50880;SDS011;36858;47.832;-3.800;2023-05-23T13:37:10;4.03;;;2.20;;
50880;SDS011;36858;47.832;-3.800;2023-05-23T13:39:36;3.47;;;1.80;;
50880;SDS011;36858;47.832;-3.800;2023-05-23T13:42:03;2.17;;;1.97;;
50880;SDS011;36858;47.832;-3.800;2023-05-23T13:44:31;4.13;;;1.73;;
50880;SDS011;36858;47.832;-3.800;2023-05-23T13:47:03;3.17;;;1.57;;
50880;SDS011;36858;47.832;-3.800;2023-05-23T13:49:38;3.43;;;1.67;;
50880;SDS011;36858;47.832;-3.800;2023-05-23T13:52:06;3.93;;;1.90;;
50880;SDS011;36858;47.832;-3.800;2023-05-23T13:54:33;3.23;;;1.63;;
50880;SDS011;36858;47.832;-3.800;2023-05-23T13:57:01;2.67;;;1.60;;
50880;SDS011;36858;47.832;-3.800;2023-05-23T13:59:28;5.20;;;1.93;;
50880;SDS011;36858;47.832;-3.800;2023-05-23T14:01:55;4.37;;;1.90;;
50880;SDS011;36858;47.832;-3.800;2023-05-23T14:04:22;3.20;;;2.10;;
50880;SDS011;36858;47.832;-3.800;2023-05-23T14:06:49;2.97;;;1.57;;
50880;SDS011;36858;47.832;-3.800;2023-05-23T14:09:16;2.13;;;1.80;;
50880;SDS011;36858;47.832;-3.800;2023-05-23T14:11:44;3.50;;;2.00;;
50880;SDS011;36858;47.832;-3.800;2023-05-23T14:14:11;3.27;;;1.57;;
50880;SDS011;36858;47.832;-3.800;2023-05-23T14:16:37;2.07;;;1.87;;
50880;SDS011;36858;47.832;-3.800;2023-05-23T14:19:04;3.33;;;1.73;;
50880;SDS011;36858;47.832;-3.800;2023-05-23T14:21:32;1.67;;;1.40;;
50880;SDS011;36858;47.832;-3.800;2023-05-23T14:23:59;4.60;;;1.70;;
50880;SDS011;36858;47.832;-3.800;2023-05-23T14:26:26;4.10;;;1.83;;
50880;SDS011;36858;47.832;-3.800;2023-05-23T14:28:53;2.67;;;1.57;;
50880;SDS011;36858;47.832;-3.800;2023-05-23T14:31:20;2.23;;;1.87;;
50880;SDS011;36858;47.832;-3.800;2023-05-23T14:33:47;3.93;;;1.83;;
50880;SDS011;36858;47.832;-3.800;2023-05-23T14:36:15;2.73;;;1.73;;
50880;SDS011;36858;47.832;-3.800;2023-05-23T14:38:42;2.93;;;1.60;;
50880;SDS011;36858;47.832;-3.800;2023-05-23T14:41:12;2.77;;;2.00;;
50880;SDS011;36858;47.832;-3.800;2023-05-23T14:43:39;4.40;;;2.50;;
50880;SDS011;36858;47.832;-3.800;2023-05-23T14:46:06;2.17;;;1.63;;
50880;SDS011;36858;47.832;-3.800;2023-05-23T14:48:34;2.73;;;1.90;;
50880;SDS011;36858;47.832;-3.800;2023-05-23T14:51:01;5.50;;;2.30;;
50880;SDS011;36858;47.832;-3.800;2023-05-23T14:53:29;2.20;;;1.80;;
50880;SDS011;36858;47.832;-3.800;2023-05-23T14:55:56;3.00;;;1.70;;
50880;SDS011;36858;47.832;-3.800;2023-05-23T14:58:23;3.30;;;2.10;;
50880;SDS011;36858;47.832;-3.800;2023-05-23T15:00:51;2.83;;;1.80;;
50880;SDS011;36858;47.832;-3.800;2023-05-23T15:03:18;6.93;;;2.00;;
50880;SDS011;36858;47.832;-3.800;2023-05-23T15:05:45;2.73;;;1.90;;
50880;SDS011;36858;47.832;-3.800;2023-05-23T15:08:14;3.13;;;1.83;;
50880;SDS011;36858;47.832;-3.800;2023-05-23T15:10:43;2.60;;;1.90;;
50880;SDS011;36858;47.832;-3.800;2023-05-23T15:13:11;3.97;;;2.23;;
50880;SDS011;36858;47.832;-3.800;2023-05-23T15:15:38;3.43;;;2.20;;
50880;SDS011;36858;47.832;-3.800;2023-05-23T15:18:06;3.37;;;2.10;;
50880;SDS011;36858;47.832;-3.800;2023-05-23T15:20:35;2.70;;;2.17;;
50880;SDS011;36858;47.832;-3.800;2023-05-23T15:23:02;3.30;;;2.20;;
50880;SDS011;36858;47.832;-3.800;2023-05-23T15:25:30;5.03;;;2.50;;
50880;SDS011;36858;47.832;-3.800;2023-05-23T15:28:14;3.03;;;2.13;;
50880;SDS011;36858;47.832;-3.800;2023-05-23T15:30:41;5.13;;;2.57;;
50880;SDS011;36858;47.832;-3.800;2023-05-23T15:33:09;2.67;;;2.10;;
50880;SDS011;36858;47.832;-3.800;2023-05-23T15:35:38;3.50;;;2.70;;
50880;SDS011;36858;47.832;-3.800;2023-05-23T15:38:05;2.87;;;2.53;;
50880;SDS011;36858;47.832;-3.800;2023-05-23T15:40:32;3.30;;;2.40;;
50880;SDS011;36858;47.832;-3.800;2023-05-23T15:42:59;3.07;;;2.57;;
50880;SDS011;36858;47.832;-3.800;2023-05-23T15:45:26;4.40;;;2.67;;
50880;SDS011;36858;47.832;-3.800;2023-05-23T15:47:53;4.03;;;2.37;;
50880;SDS011;36858;47.832;-3.800;2023-05-23T15:50:20;4.03;;;3.00;;
50880;SDS011;36858;47.832;-3.800;2023-05-23T15:52:46;3.90;;;2.73;;
50880;SDS011;36858;47.832;-3.800;2023-05-23T15:55:13;3.30;;;2.53;;
50880;SDS011;36858;47.832;-3.800;2023-05-23T15:57:41;5.67;;;2.80;;
50880;SDS011;36858;47.832;-3.800;2023-05-23T16:00:08;4.07;;;2.73;;
50880;SDS011;36858;47.832;-3.800;2023-05-23T16:02:35;5.87;;;2.50;;
50880;SDS011;36858;47.832;-3.800;2023-05-23T16:05:02;8.40;;;3.00;;
50880;SDS011;36858;47.832;-3.800;2023-05-23T16:07:29;4.40;;;2.80;;
50880;SDS011;36858;47.832;-3.800;2023-05-23T16:09:56;4.10;;;2.70;;
50880;SDS011;36858;47.832;-3.800;2023-05-23T16:12:23;3.83;;;2.40;;
50880;SDS011;36858;47.832;-3.800;2023-05-23T16:14:50;5.30;;;3.03;;
50880;SDS011;36858;47.832;-3.800;2023-05-23T16:17:17;5.30;;;2.60;;
50880;SDS011;36858;47.832;-3.800;2023-05-23T16:19:44;4.90;;;2.23;;
50880;SDS011;36858;47.832;-3.800;2023-05-23T16:22:11;7.07;;;2.67;;
50880;SDS011;36858;47.832;-3.800;2023-05-23T16:24:38;3.70;;;2.63;;
50880;SDS011;36858;47.832;-3.800;2023-05-23T16:27:08;4.33;;;2.10;;
50880;SDS011;36858;47.832;-3.800;2023-05-23T16:29:35;6.50;;;2.67;;
50880;SDS011;36858;47.832;-3.800;2023-05-23T16:32:02;3.47;;;2.30;;
50880;SDS011;36858;47.832;-3.800;2023-05-23T16:34:29;5.40;;;2.13;;
50880;SDS011;36858;47.832;-3.800;2023-05-23T16:36:56;4.37;;;2.07;;
50880;SDS011;36858;47.832;-3.800;2023-05-23T16:39:23;3.10;;;2.10;;
50880;SDS011;36858;47.832;-3.800;2023-05-23T16:41:50;3.83;;;2.00;;
50880;SDS011;36858;47.832;-3.800;2023-05-23T16:44:17;3.40;;;1.97;;
50880;SDS011;36858;47.832;-3.800;2023-05-23T16:46:44;2.93;;;1.80;;
50880;SDS011;36858;47.832;-3.800;2023-05-23T16:49:11;2.67;;;2.17;;
50880;SDS011;36858;47.832;-3.800;2023-05-23T16:51:38;7.20;;;2.03;;
50880;SDS011;36858;47.832;-3.800;2023-05-23T16:54:05;2.97;;;2.10;;
50880;SDS011;36858;47.832;-3.800;2023-05-23T16:56:32;3.60;;;2.07;;
50880;SDS011;36858;47.832;-3.800;2023-05-23T16:58:59;2.67;;;2.00;;
50880;SDS011;36858;47.832;-3.800;2023-05-23T17:01:27;3.67;;;2.23;;
50880;SDS011;36858;47.832;-3.800;2023-05-23T17:03:54;3.10;;;2.33;;
50880;SDS011;36858;47.832;-3.800;2023-05-23T17:06:22;2.93;;;2.10;;
50880;SDS011;36858;47.832;-3.800;2023-05-23T17:08:49;2.73;;;2.00;;
50880;SDS011;36858;47.832;-3.800;2023-05-23T17:11:16;2.47;;;1.90;;
50880;SDS011;36858;47.832;-3.800;2023-05-23T17:13:43;3.53;;;1.73;;
50880;SDS011;36858;47.832;-3.800;2023-05-23T17:16:10;2.90;;;1.93;;
50880;SDS011;36858;47.832;-3.800;2023-05-23T17:18:37;2.83;;;2.10;;
50880;SDS011;36858;47.832;-3.800;2023-05-23T17:21:04;2.63;;;2.27;;
50880;SDS011;36858;47.832;-3.800;2023-05-23T17:23:31;3.90;;;1.90;;
50880;SDS011;36858;47.832;-3.800;2023-05-23T17:25:58;4.07;;;2.37;;
50880;SDS011;36858;47.832;-3.800;2023-05-23T17:28:25;3.23;;;2.03;;
50880;SDS011;36858;47.832;-3.800;2023-05-23T17:30:52;2.57;;;2.07;;
50880;SDS011;36858;47.832;-3.800;2023-05-23T17:33:19;4.67;;;2.23;;
50880;SDS011;36858;47.832;-3.800;2023-05-23T17:35:46;2.53;;;1.87;;
50880;SDS011;36858;47.832;-3.800;2023-05-23T17:38:13;3.67;;;2.10;;
50880;SDS011;36858;47.832;-3.800;2023-05-23T17:40:40;3.40;;;1.97;;
50880;SDS011;36858;47.832;-3.800;2023-05-23T17:43:07;3.03;;;2.10;;
50880;SDS011;36858;47.832;-3.800;2023-05-23T17:45:34;2.70;;;2.00;;
50880;SDS011;36858;47.832;-3.800;2023-05-23T17:48:01;5.67;;;1.87;;
50880;SDS011;36858;47.832;-3.800;2023-05-23T17:50:29;2.87;;;1.73;;
50880;SDS011;36858;47.832;-3.800;2023-05-23T17:52:56;3.20;;;1.70;;
50880;SDS011;36858;47.832;-3.800;2023-05-23T17:55:23;15.83;;;2.87;;
50880;SDS011;36858;47.832;-3.800;2023-05-23T17:57:50;25.63;;;4.20;;
50880;SDS011;36858;47.832;-3.800;2023-05-23T18:00:17;7.97;;;2.40;;
50880;SDS011;36858;47.832;-3.800;2023-05-23T18:02:44;4.93;;;1.83;;
50880;SDS011;36858;47.832;-3.800;2023-05-23T18:05:11;3.67;;;2.20;;
50880;SDS011;36858;47.832;-3.800;2023-05-23T18:07:38;4.30;;;1.73;;
50880;SDS011;36858;47.832;-3.800;2023-05-23T18:10:05;2.90;;;1.90;;
50880;SDS011;36858;47.832;-3.800;2023-05-23T18:12:33;3.90;;;1.93;;
50880;SDS011;36858;47.832;-3.800;2023-05-23T18:15:00;3.63;;;2.17;;
50880;SDS011;36858;47.832;-3.800;2023-05-23T18:17:27;3.97;;;2.00;;
50880;SDS011;36858;47.832;-3.800;2023-05-23T18:19:54;3.73;;;2.00;;
50880;SDS011;36858;47.832;-3.800;2023-05-23T18:22:22;3.93;;;2.13;;
50880;SDS011;36858;47.832;-3.800;2023-05-23T18:24:49;4.13;;;1.93;;
50880;SDS011;36858;47.832;-3.800;2023-05-23T18:27:16;4.73;;;2.23;;
50880;SDS011;36858;47.832;-3.800;2023-05-23T18:29:42;2.63;;;2.10;;
50880;SDS011;36858;47.832;-3.800;2023-05-23T18:32:09;3.87;;;2.33;;
50880;SDS011;36858;47.832;-3.800;2023-05-23T18:34:37;3.03;;;1.87;;
50880;SDS011;36858;47.832;-3.800;2023-05-23T18:37:04;6.67;;;2.20;;
50880;SDS011;36858;47.832;-3.800;2023-05-23T18:39:31;3.67;;;2.10;;
50880;SDS011;36858;47.832;-3.800;2023-05-23T18:41:58;2.37;;;1.90;;
50880;SDS011;36858;47.832;-3.800;2023-05-23T18:44:25;3.97;;;1.80;;
50880;SDS011;36858;47.832;-3.800;2023-05-23T18:46:52;2.43;;;2.00;;
50880;SDS011;36858;47.832;-3.800;2023-05-23T18:49:19;2.70;;;2.00;;
50880;SDS011;36858;47.832;-3.800;2023-05-23T18:51:46;3.93;;;1.90;;
50880;SDS011;36858;47.832;-3.800;2023-05-23T18:54:13;3.80;;;1.90;;
50880;SDS011;36858;47.832;-3.800;2023-05-23T18:56:40;2.90;;;2.03;;
50880;SDS011;36858;47.832;-3.800;2023-05-23T18:59:07;5.93;;;2.10;;
50880;SDS011;36858;47.832;-3.800;2023-05-23T19:01:39;4.97;;;2.03;;
50880;SDS011;36858;47.832;-3.800;2023-05-23T19:04:06;5.00;;;2.50;;
50880;SDS011;36858;47.832;-3.800;2023-05-23T19:06:33;4.77;;;2.20;;
50880;SDS011;36858;47.832;-3.800;2023-05-23T19:09:00;6.90;;;2.50;;
50880;SDS011;36858;47.832;-3.800;2023-05-23T19:11:28;4.13;;;2.13;;
50880;SDS011;36858;47.832;-3.800;2023-05-23T19:13:55;4.17;;;2.17;;
50880;SDS011;36858;47.832;-3.800;2023-05-23T19:16:22;5.23;;;2.13;;
50880;SDS011;36858;47.832;-3.800;2023-05-23T19:18:49;4.10;;;2.10;;
50880;SDS011;36858;47.832;-3.800;2023-05-23T19:21:16;7.03;;;2.53;;
50880;SDS011;36858;47.832;-3.800;2023-05-23T19:23:43;5.37;;;2.20;;
50880;SDS011;36858;47.832;-3.800;2023-05-23T19:26:10;7.50;;;2.27;;
50880;SDS011;36858;47.832;-3.800;2023-05-23T19:28:39;3.60;;;2.17;;
50880;SDS011;36858;47.832;-3.800;2023-05-23T19:31:06;2.57;;;1.80;;
50880;SDS011;36858;47.832;-3.800;2023-05-23T19:33:33;3.70;;;2.00;;
50880;SDS011;36858;47.832;-3.800;2023-05-23T19:36:00;3.63;;;2.20;;
50880;SDS011;36858;47.832;-3.800;2023-05-23T19:38:27;4.70;;;2.13;;
50880;SDS011;36858;47.832;-3.800;2023-05-23T19:40:54;3.80;;;1.93;;
50880;SDS011;36858;47.832;-3.800;2023-05-23T19:43:21;6.57;;;2.40;;
50880;SDS011;36858;47.832;-3.800;2023-05-23T19:45:47;5.60;;;2.20;;
50880;SDS011;36858;47.832;-3.800;2023-05-23T19:48:14;3.90;;;2.53;;
50880;SDS011;36858;47.832;-3.800;2023-05-23T19:50:42;4.17;;;1.70;;
50880;SDS011;36858;47.832;-3.800;2023-05-23T19:53:09;7.13;;;1.83;;
50880;SDS011;36858;47.832;-3.800;2023-05-23T19:55:36;2.97;;;1.20;;
50880;SDS011;36858;47.832;-3.800;2023-05-23T19:58:04;3.33;;;1.00;;
